Time;durP1;ratioP1;P1;durP2;ratioP2;P2;SDS_P1;SDS_P2;PMS_P1;PMS_P2;Temp;Humidity;BMP_temperature;BMP_pressure;BME280_temperature;BME280_humidity;BME280_pressure;Samples;Min_cycle;Max_cycle;Signal;HPM_P1;HPM_P2
2023/10/05 00:02:12;;;;;;;15.32;4.88;;;;;;;19.09;61.63;102087.91;5055492;28;20376;-64
2023/10/05 00:04:42;;;;;;;13.65;5.00;;;;;;;19.08;62.11;102091.06;5073418;28;20052;-63
2023/10/05 00:07:33;;;;;;;14.05;4.88;;;;;;;19.26;61.85;102094.56;5073370;28;20052;-63
2023/10/05 00:10:00;;;;;;;12.18;4.97;;;;;;;19.12;61.69;102092.03;5071398;28;20063;-65
2023/10/05 00:12:28;;;;;;;12.23;4.70;;;;;;;19.14;61.45;102089.72;5073487;28;20060;-64
2023/10/05 00:17:34;;;;;;;12.48;3.72;;;;;;;19.17;61.58;102071.44;5073071;28;20056;-63
2023/10/05 00:20:09;;;;;;;19.15;4.60;;;;;;;19.23;61.28;102072.91;5073194;28;20048;-64
2023/10/05 00:22:37;;;;;;;10.38;4.13;;;;;;;19.05;61.46;102081.41;5073609;28;20056;-64
2023/10/05 00:25:05;;;;;;;12.65;4.40;;;;;;;19.03;61.99;102089.28;5072886;28;20415;-62
2023/10/05 00:27:32;;;;;;;10.85;4.15;;;;;;;19.07;61.65;102083.84;5073181;28;20048;-64
2023/10/05 00:30:00;;;;;;;11.73;4.07;;;;;;;19.08;61.81;102088.25;5072895;28;20052;-64
2023/10/05 00:32:35;;;;;;;11.98;4.28;;;;;;;18.96;62.26;102093.75;5054444;28;20044;-63
2023/10/05 00:35:20;;;;;;;12.52;4.20;;;;;;;19.11;62.28;102090.38;5058712;28;20672;-62
2023/10/05 00:37:49;;;;;;;11.88;3.95;;;;;;;19.01;62.49;102083.22;5077357;28;20047;-69
2023/10/05 00:43:12;;;;;;;12.38;3.70;;;;;;;18.76;63.12;102092.53;5077040;28;20064;-69
2023/10/05 00:45:46;;;;;;;11.45;4.10;;;;;;;18.76;63.27;102098.09;5057031;28;20530;-68
2023/10/05 00:48:27;;;;;;;11.73;3.45;;;;;;;18.80;63.08;102089.88;5038061;28;20045;-68
2023/10/05 00:51:34;;;;;;;10.27;3.67;;;;;;;18.93;62.65;102078.47;5076650;28;20064;-68
2023/10/05 00:53:53;;;;;;;10.82;3.72;;;;;;;19.03;62.78;102071.69;5074947;28;20068;-69
2023/10/05 00:56:22;;;;;;;10.75;3.65;;;;;;;18.99;62.45;102062.34;5058841;28;20056;-70
2023/10/05 00:58:56;;;;;;;15.77;4.03;;;;;;;18.98;62.60;102067.16;5076371;28;20059;-69
2023/10/05 01:01:27;;;;;;;10.32;3.83;;;;;;;18.88;62.83;102067.50;5076363;28;20064;-69
2023/10/05 01:06:45;;;;;;;12.10;3.90;;;;;;;18.94;62.81;102085.72;5076764;28;20053;-69
2023/10/05 01:14:50;;;;;;;13.35;4.07;;;;;;;18.93;61.79;102086.06;5076370;28;20056;-70
2023/10/05 01:17:22;;;;;;;11.30;3.60;;;;;;;18.87;62.32;102090.19;5058202;28;20060;-70
2023/10/05 01:19:58;;;;;;;15.13;4.35;;;;;;;18.73;61.91;102096.00;5076084;28;20052;-70
2023/10/05 01:22:33;;;;;;;11.23;3.42;;;;;;;18.80;62.03;102087.09;5076391;28;20049;-69
2023/10/05 01:25:02;;;;;;;9.50;3.33;;;;;;;18.74;61.79;102082.88;5058761;28;20045;-70
2023/10/05 01:27:30;;;;;;;11.93;3.28;;;;;;;18.92;61.31;102081.59;5058350;28;20123;-70
2023/10/05 01:29:57;;;;;;;9.95;3.15;;;;;;;19.02;61.41;102079.25;5058026;28;20526;-70
2023/10/05 01:32:26;;;;;;;12.00;3.40;;;;;;;18.82;61.64;102076.41;5076166;28;20044;-69
2023/10/05 01:34:53;;;;;;;8.85;3.00;;;;;;;18.74;61.93;102074.50;5041037;28;20052;-69
2023/10/05 01:37:26;;;;;;;11.25;2.95;;;;;;;18.60;62.67;102062.72;5058169;28;20051;-69
2023/10/05 01:39:53;;;;;;;10.95;3.33;;;;;;;18.70;62.45;102063.19;5076360;28;20059;-69
2023/10/05 01:42:21;;;;;;;7.55;3.08;;;;;;;18.83;61.89;102058.50;5057660;28;20066;-70
2023/10/05 01:44:49;;;;;;;10.75;3.00;;;;;;;18.80;62.29;102048.84;5075584;28;20048;-69
2023/10/05 01:47:17;;;;;;;11.93;3.47;;;;;;;18.92;61.78;102050.91;5090919;28;20056;-69
2023/10/05 01:49:45;;;;;;;11.32;3.20;;;;;;;18.79;62.07;102047.19;5085973;28;20687;-71
2023/10/05 01:52:16;;;;;;;8.65;3.42;;;;;;;18.77;61.21;102049.53;5075879;28;20052;-69
2023/10/05 01:54:44;;;;;;;10.45;3.42;;;;;;;18.71;61.80;102047.22;5076110;28;20064;-70
2023/10/05 01:57:15;;;;;;;8.05;3.22;;;;;;;18.80;61.68;102053.59;5057852;28;20067;-69
2023/10/05 01:59:43;;;;;;;8.32;2.85;;;;;;;18.85;61.75;102059.81;5057842;28;20045;-69
2023/10/05 02:02:12;;;;;;;10.38;3.05;;;;;;;18.72;61.60;102074.84;5074896;28;20055;-70
2023/10/05 02:04:49;;;;;;;11.43;3.30;;;;;;;18.68;62.26;102059.91;5075683;28;20419;-63
2023/10/05 02:07:16;;;;;;;11.68;3.15;;;;;;;18.86;61.55;102074.59;5075322;28;20095;-70
2023/10/05 02:09:44;;;;;;;8.25;3.20;;;;;;;18.70;61.83;102065.97;5050054;28;20072;-70
2023/10/05 02:12:11;;;;;;;10.63;3.10;;;;;;;18.73;61.68;102065.28;5037282;28;20531;-70
2023/10/05 02:14:41;;;;;;;8.95;3.35;;;;;;;18.71;62.28;102064.81;5045573;28;20392;-71
2023/10/05 02:17:10;;;;;;;10.02;2.95;;;;;;;18.81;61.83;102058.84;5075257;28;20099;-69
2023/10/05 02:19:41;;;;;;;11.00;3.30;;;;;;;18.74;61.81;102052.97;5074621;28;20053;-69
2023/10/05 02:22:11;;;;;;;11.85;3.50;;;;;;;19.00;60.79;102044.47;5074891;28;20049;-70
2023/10/05 02:24:41;;;;;;;10.25;3.13;;;;;;;18.92;61.27;102039.72;5075832;28;20048;-70
2023/10/05 02:27:09;;;;;;;6.68;2.50;;;;;;;19.12;60.53;102043.72;5056816;28;20063;-71
2023/10/05 02:29:40;;;;;;;8.48;3.08;;;;;;;19.05;61.04;102052.63;5057362;28;20041;-70
2023/10/05 02:32:11;;;;;;;10.82;2.85;;;;;;;19.05;60.96;102053.47;5075013;28;20060;-64
2023/10/05 02:34:44;;;;;;;8.35;3.10;;;;;;;18.84;61.82;102049.81;5075198;28;20041;-64
2023/10/05 02:37:13;;;;;;;11.70;3.33;;;;;;;18.87;61.43;102042.72;5056984;28;20044;-64
2023/10/05 02:39:41;;;;;;;9.57;2.78;;;;;;;18.83;61.57;102044.53;5057524;28;20045;-63
2023/10/05 02:42:12;;;;;;;8.20;2.47;;;;;;;18.91;61.54;102038.09;5079226;28;20269;-64
2023/10/05 02:44:40;;;;;;;10.82;3.55;;;;;;;18.88;61.62;102044.38;5075156;28;20059;-64
2023/10/05 02:47:12;;;;;;;12.95;3.00;;;;;;;18.99;61.29;102038.06;5074678;28;20059;-63
2023/10/05 02:49:44;;;;;;;11.98;3.60;;;;;;;18.82;61.54;102051.28;5056953;28;20132;-63
2023/10/05 02:52:16;;;;;;;9.40;3.25;;;;;;;18.44;61.97;102042.09;5039709;28;20061;-64
2023/10/05 02:54:48;;;;;;;8.85;2.90;;;;;;;18.51;63.06;102045.19;5075158;28;20055;-63
2023/10/05 02:57:19;;;;;;;12.35;3.58;;;;;;;18.65;62.45;102048.59;5055731;28;20053;-69
2023/10/05 02:59:47;;;;;;;10.02;3.22;;;;;;;18.75;62.57;102051.00;5056657;28;20049;-71
2023/10/05 03:02:16;;;;;;;7.32;2.95;;;;;;;18.61;62.66;102042.84;5056727;28;20063;-69
2023/10/05 03:04:44;;;;;;;11.95;2.92;;;;;;;18.53;62.24;102045.69;5056807;28;20587;-70
2023/10/05 03:07:16;;;;;;;10.63;2.95;;;;;;;18.31;63.55;102045.88;5056281;28;20440;-70
2023/10/05 03:09:48;;;;;;;8.13;3.15;;;;;;;18.58;62.42;102046.31;5056934;28;20049;-70
2023/10/05 03:12:20;;;;;;;7.82;2.75;;;;;;;18.56;63.00;102045.84;5056497;28;20060;-70
2023/10/05 03:14:52;;;;;;;9.73;2.83;;;;;;;18.64;62.97;102036.59;5056544;28;20411;-70
2023/10/05 03:17:20;;;;;;;10.60;2.67;;;;;;;18.60;62.37;102038.41;5073817;28;20052;-70
2023/10/05 03:19:52;;;;;;;;;;;;;;;18.21;62.95;102037.88;5056645;28;20055;-69
2023/10/05 03:22:23;;;;;;;7.57;2.38;;;;;;;18.41;63.00;102031.63;5074318;28;19925;-70
2023/10/05 03:24:56;;;;;;;9.15;3.00;;;;;;;18.21;63.45;102023.94;5056230;28;20052;-69
2023/10/05 03:27:25;;;;;;;9.63;2.67;;;;;;;18.30;63.49;102024.72;5056112;28;20063;-69
2023/10/05 03:29:58;;;;;;;11.85;3.42;;;;;;;18.44;62.21;102031.78;5056271;28;20044;-70
2023/10/05 03:32:28;;;;;;;10.13;2.85;;;;;;;18.52;62.39;102018.91;5055777;28;20048;-70
2023/10/05 03:34:57;;;;;;;9.07;2.50;;;;;;;18.49;62.04;102028.78;5040286;28;20522;-70
2023/10/05 03:37:24;;;;;;;7.85;2.97;;;;;;;18.66;61.88;102039.06;5055897;28;20048;-69
2023/10/05 03:39:53;;;;;;;14.82;3.47;;;;;;;18.76;61.13;102024.69;5055614;28;20053;-69
2023/10/05 03:42:22;;;;;;;10.63;2.92;;;;;;;18.75;61.30;102023.91;5055893;28;20064;-69
2023/10/05 03:45:09;;;;;;;13.00;3.60;;;;;;;18.72;61.63;102030.16;5039693;28;20040;-70
2023/10/05 03:47:39;;;;;;;9.25;3.03;;;;;;;18.43;62.17;102029.31;5073030;28;20060;-70
2023/10/05 03:50:16;;;;;;;7.70;3.08;;;;;;;18.15;62.72;102033.66;5059004;28;20051;-70
2023/10/05 03:52:47;;;;;;;8.27;2.88;;;;;;;18.25;63.52;102048.06;5073958;28;20053;-69
2023/10/05 03:55:19;;;;;;;10.32;3.17;;;;;;;18.44;63.31;102051.31;5055766;28;20488;-69
2023/10/05 03:57:49;;;;;;;9.52;2.83;;;;;;;18.45;62.82;102054.91;5056394;28;20060;-70
2023/10/05 04:00:23;;;;;;;11.63;2.63;;;;;;;18.26;63.84;102057.22;5073517;28;20036;-70
2023/10/05 04:02:56;;;;;;;10.52;2.88;;;;;;;18.12;63.10;102056.59;5073226;28;20052;-70
2023/10/05 04:05:24;;;;;;;7.68;2.95;;;;;;;18.29;63.79;102056.59;5073879;28;20040;-71
2023/10/05 04:07:52;;;;;;;8.38;3.20;;;;;;;18.31;63.18;102045.88;5072582;28;20053;-69
2023/10/05 04:10:23;;;;;;;11.25;2.60;;;;;;;18.51;62.60;102048.00;5055311;28;20055;-70
2023/10/05 04:12:51;;;;;;;10.90;3.10;;;;;;;18.28;63.26;102043.78;5073568;28;20052;-70
2023/10/05 04:15:20;;;;;;;9.63;2.83;;;;;;;18.38;63.28;102047.00;5055936;28;20055;-70
2023/10/05 04:17:51;;;;;;;10.95;3.10;;;;;;;18.32;63.00;102042.78;5072681;28;20527;-70
2023/10/05 04:20:27;;;;;;;11.50;3.25;;;;;;;18.26;63.77;102038.53;5055172;28;20071;-69
2023/10/05 04:22:56;;;;;;;8.40;2.75;;;;;;;18.45;63.27;102046.53;5073392;28;20501;-63
2023/10/05 04:25:23;;;;;;;12.45;2.88;;;;;;;18.38;63.05;102047.00;5073316;28;20510;-63
2023/10/05 04:27:52;;;;;;;9.85;2.85;;;;;;;18.45;62.74;102047.34;5072769;28;20055;-63
2023/10/05 04:30:21;;;;;;;10.93;3.25;;;;;;;18.60;62.30;102057.94;5073259;28;20040;-69
2023/10/05 04:32:49;;;;;;;8.02;2.65;;;;;;;18.48;62.30;102071.78;5073440;28;20399;-69
2023/10/05 04:35:25;;;;;;;12.30;3.15;;;;;;;17.78;62.56;102072.22;5053334;28;20048;-70
2023/10/05 04:37:54;;;;;;;10.50;3.30;;;;;;;17.87;64.75;102066.66;5062066;28;20057;-70
2023/10/05 04:40:24;;;;;;;9.75;3.10;;;;;;;18.15;63.59;102062.34;5073151;28;20041;-71
2023/10/05 04:42:52;;;;;;;8.88;2.92;;;;;;;18.21;63.47;102061.03;5067568;28;20056;-71
2023/10/05 04:45:20;;;;;;;11.27;3.20;;;;;;;18.27;62.76;102062.47;5073108;28;20045;-70
2023/10/05 04:47:48;;;;;;;8.18;3.00;;;;;;;18.41;62.67;102060.31;5069164;28;20052;-70
2023/10/05 04:50:17;;;;;;;8.95;2.70;;;;;;;18.33;63.26;102057.53;5073300;28;20049;-69
2023/10/05 04:52:51;;;;;;;9.75;2.90;;;;;;;18.33;62.51;102054.75;5041783;28;20057;-69
2023/10/05 04:55:22;;;;;;;8.38;2.90;;;;;;;18.30;62.99;102050.66;5057541;28;20048;-70
2023/10/05 04:57:54;;;;;;;9.13;3.55;;;;;;;18.26;62.53;102043.28;5072491;28;20056;-71
2023/10/05 05:08:38;;;;;;;12.48;3.75;;;;;;;18.42;62.75;102041.63;5072624;28;20526;-63
2023/10/05 05:11:26;;;;;;;12.43;3.45;;;;;;;18.37;62.56;102045.41;5072627;28;20059;-64
2023/10/05 05:13:54;;;;;;;8.90;2.70;;;;;;;18.19;63.08;102054.13;5072933;28;20044;-64
2023/10/05 05:16:22;;;;;;;12.30;2.80;;;;;;;18.09;63.83;102046.13;5072708;28;20079;-64
2023/10/05 05:18:49;;;;;;;10.50;3.50;;;;;;;18.13;63.92;102041.53;5054280;28;20044;-64
2023/10/05 05:21:16;;;;;;;8.70;3.40;;;;;;;18.18;63.76;102044.13;5074443;28;20694;-64
2023/10/05 05:23:43;;;;;;;11.70;3.08;;;;;;;18.30;63.60;102039.50;5076975;28;20406;-64
2023/10/05 05:26:11;;;;;;;11.55;3.53;;;;;;;18.48;62.94;102043.09;5076474;28;20502;-64
2023/10/05 05:28:39;;;;;;;10.07;3.17;;;;;;;18.21;63.49;102033.13;5075902;28;20052;-63
2023/10/05 05:31:09;;;;;;;10.30;3.28;;;;;;;18.22;63.84;102036.75;5082153;28;20045;-64
2023/10/05 05:33:38;;;;;;;;;;;;;;;18.08;64.05;102030.56;5076944;28;20052;-63
2023/10/05 05:36:07;;;;;;;8.85;3.38;;;;;;;18.16;64.05;102032.50;5076245;28;19925;-66
2023/10/05 05:38:35;;;;;;;10.48;3.60;;;;;;;17.90;64.53;102038.94;5073834;28;20047;-64
2023/10/05 05:41:10;;;;;;;11.32;3.55;;;;;;;17.97;64.21;102032.88;5068594;28;20071;-63
2023/10/05 05:43:39;;;;;;;8.70;3.42;;;;;;;18.06;64.35;102036.47;5052649;28;20063;-63
2023/10/05 05:46:13;;;;;;;8.95;3.00;;;;;;;18.07;64.23;102035.31;5075791;28;20207;-64
2023/10/05 05:48:48;;;;;;;10.32;3.15;;;;;;;18.04;64.42;102043.50;5075371;28;20056;-65
2023/10/05 05:51:15;;;;;;;9.70;3.60;;;;;;;18.05;64.38;102045.97;5057896;28;20047;-63
2023/10/05 05:53:43;;;;;;;13.32;3.53;;;;;;;18.06;64.05;102061.56;5057828;28;20060;-63
2023/10/05 05:56:17;;;;;;;12.48;3.60;;;;;;;18.09;63.83;102060.06;5057616;28;20060;-64
2023/10/05 05:58:48;;;;;;;9.30;3.10;;;;;;;18.04;64.46;102068.59;5075054;28;20681;-63
2023/10/05 06:01:16;;;;;;;9.43;3.42;;;;;;;17.96;64.28;102064.69;5075775;28;20048;-63
2023/10/05 06:03:50;;;;;;;11.93;3.75;;;;;;;18.04;64.28;102072.22;5073986;28;20044;-63
2023/10/05 06:06:19;;;;;;;12.40;3.88;;;;;;;17.93;64.71;102071.75;5075683;28;20406;-63
2023/10/05 06:08:49;;;;;;;8.95;3.40;;;;;;;17.88;64.70;102073.88;5075390;28;20051;-64
2023/10/05 06:11:16;;;;;;;9.88;3.65;;;;;;;17.85;64.59;102083.72;5054097;28;20052;-63
2023/10/05 06:13:45;;;;;;;10.98;3.38;;;;;;;17.90;64.44;102083.53;5055208;28;20053;-63
2023/10/05 06:16:14;;;;;;;11.15;4.07;;;;;;;17.88;65.21;102091.44;5066184;28;20056;-63
2023/10/05 06:18:42;;;;;;;13.48;3.85;;;;;;;18.04;65.23;102093.69;5058135;28;20060;-62
2023/10/05 06:21:09;;;;;;;12.63;5.78;;;;;;;17.85;66.00;102091.28;5074081;28;20506;-63
2023/10/05 06:23:36;;;;;;;17.75;9.63;;;;;;;17.92;66.30;102086.81;5074705;28;20056;-63
2023/10/05 06:26:04;;;;;;;7.88;3.58;;;;;;;17.82;67.08;102089.94;5073735;28;20450;-62
2023/10/05 06:28:33;;;;;;;11.75;3.75;;;;;;;17.92;66.94;102091.59;5074927;28;20541;-63
2023/10/05 06:31:01;;;;;;;;;;;;;;;18.04;65.92;102085.34;5075697;28;20044;-62
2023/10/05 06:33:29;;;;;;;11.23;5.28;;;;;;;18.07;66.02;102079.09;5073755;28;20489;-62
2023/10/05 06:35:56;;;;;;;12.13;5.50;;;;;;;18.04;66.20;102074.19;5071354;28;20045;-65
2023/10/05 06:38:23;;;;;;;17.70;5.22;;;;;;;18.17;66.30;102081.53;5069496;28;20044;-63
2023/10/05 06:40:51;;;;;;;19.05;4.65;;;;;;;18.33;65.58;102063.13;5074094;28;20484;-64
2023/10/05 06:43:18;;;;;;;17.75;5.13;;;;;;;18.45;65.00;102077.22;5052497;28;20052;-62
2023/10/05 06:45:45;;;;;;;15.07;4.95;;;;;;;18.33;65.32;102086.25;5062485;28;20053;-62
2023/10/05 06:48:15;;;;;;;17.10;5.00;;;;;;;18.40;64.89;102096.91;5066578;28;20057;-63
2023/10/05 06:50:43;;;;;;;18.38;7.53;;;;;;;18.60;64.14;102099.00;5069537;28;20067;-62
2023/10/05 06:53:13;;;;;;;17.05;7.00;;;;;;;18.00;65.33;102113.06;5038229;28;20051;-63
2023/10/05 06:55:40;;;;;;;17.50;7.35;;;;;;;18.08;66.17;102100.28;5060892;28;20045;-63
2023/10/05 06:58:08;;;;;;;12.93;4.60;;;;;;;18.19;65.90;102105.16;5055255;28;20052;-64
2023/10/05 07:00:35;;;;;;;12.05;5.07;;;;;;;18.32;64.92;102101.38;5073551;28;20052;-63
2023/10/05 07:03:06;;;;;;;15.63;5.00;;;;;;;18.33;65.11;102100.22;5066579;28;20075;-64
2023/10/05 07:05:34;;;;;;;16.30;4.82;;;;;;;18.42;64.83;102094.63;5072225;28;20045;-65
2023/10/05 07:08:02;;;;;;;14.05;4.47;;;;;;;18.40;64.84;102096.91;5056169;28;20043;-65
2023/10/05 07:10:31;;;;;;;27.13;7.25;;;;;;;18.51;64.65;102098.22;5053032;28;20069;-64
2023/10/05 07:12:58;;;;;;;21.98;12.73;;;;;;;18.45;64.57;102105.13;5054446;28;20052;-65
2023/10/05 07:15:26;;;;;;;15.98;8.07;;;;;;;18.53;64.43;102116.25;5044838;28;20053;-64
2023/10/05 07:17:53;;;;;;;16.20;7.55;;;;;;;18.52;64.41;102120.22;5066770;28;20053;-65
2023/10/05 07:20:22;;;;;;;17.35;5.10;;;;;;;18.51;64.09;102120.53;5073205;28;20063;-66
2023/10/05 07:22:49;;;;;;;16.73;4.28;;;;;;;18.46;63.98;102129.09;5052935;28;20053;-64
2023/10/05 07:25:17;;;;;;;13.68;4.70;;;;;;;18.46;63.34;102124.31;5051694;28;20044;-63
2023/10/05 07:27:46;;;;;;;23.63;4.80;;;;;;;18.56;63.60;102123.16;5072964;28;20084;-66
2023/10/05 07:30:14;;;;;;;17.25;4.57;;;;;;;18.63;63.55;102120.66;5072615;28;20048;-63
2023/10/05 07:32:42;;;;;;;12.98;4.95;;;;;;;18.76;63.14;102109.28;5048141;28;20119;-63
2023/10/05 07:35:12;;;;;;;14.57;4.30;;;;;;;18.74;62.78;102113.56;5070022;28;20052;-62
2023/10/05 07:37:39;;;;;;;18.95;4.50;;;;;;;18.78;62.29;102120.94;5043562;28;20483;-63
2023/10/05 07:40:07;;;;;;;17.70;5.50;;;;;;;18.93;62.39;102119.56;5071302;28;20052;-65
2023/10/05 07:42:37;;;;;;;18.45;4.82;;;;;;;19.03;61.24;102120.00;5061338;28;20060;-63
2023/10/05 07:45:11;;;;;;;20.75;5.00;;;;;;;18.99;61.45;102118.22;5050883;28;20060;-63
2023/10/05 07:47:46;;;;;;;14.90;7.07;;;;;;;19.24;60.78;102134.03;5069733;28;20053;-64
2023/10/05 07:50:14;;;;;;;12.35;4.75;;;;;;;19.12;60.04;102149.84;5072719;28;20052;-63
2023/10/05 07:52:48;;;;;;;20.48;9.30;;;;;;;19.02;60.39;102149.06;5055090;28;20045;-63
2023/10/05 07:55:15;;;;;;;18.48;5.55;;;;;;;19.21;59.65;102145.88;5069491;28;20052;-62
2023/10/05 07:57:43;;;;;;;11.23;3.88;;;;;;;19.09;59.46;102137.38;5069969;28;20691;-62
2023/10/05 08:00:12;;;;;;;18.30;4.82;;;;;;;19.20;59.39;102135.00;5071669;28;20077;-63
2023/10/05 08:02:40;;;;;;;13.60;4.28;;;;;;;19.03;59.34;102110.81;5049156;28;20435;-61
2023/10/05 08:05:11;;;;;;;16.40;4.45;;;;;;;19.11;59.76;102114.72;5073066;28;20063;-62
2023/10/05 08:07:39;;;;;;;13.93;3.90;;;;;;;19.22;59.55;102121.53;5067783;28;20083;-62
2023/10/05 08:10:13;;;;;;;19.83;4.63;;;;;;;19.35;58.71;102143.69;5052954;28;20049;-64
2023/10/05 08:12:42;;;;;;;12.35;4.22;;;;;;;19.23;58.99;102151.13;5030618;28;20051;-64
2023/10/05 08:15:17;;;;;;;18.95;4.45;;;;;;;19.43;58.84;102137.22;5061512;28;20052;-63
2023/10/05 08:17:48;;;;;;;13.13;5.30;;;;;;;19.48;58.56;102155.75;5067744;28;20071;-63
2023/10/05 08:20:20;;;;;;;17.67;4.20;;;;;;;19.21;59.21;102161.81;5050260;28;20059;-63
2023/10/05 08:22:56;;;;;;;17.33;4.57;;;;;;;19.28;59.44;102167.69;5072561;28;20093;-62
2023/10/05 08:25:24;;;;;;;16.40;3.92;;;;;;;19.40;58.74;102165.84;5071689;28;20078;-63
2023/10/05 08:27:51;;;;;;;11.80;3.55;;;;;;;19.39;58.93;102166.16;5069166;28;20053;-62
2023/10/05 08:30:19;;;;;;;15.75;4.10;;;;;;;19.43;58.58;102184.72;5071391;28;20086;-63
2023/10/05 08:32:48;;;;;;;12.65;3.80;;;;;;;19.21;57.38;102203.72;5051412;28;20053;-64
2023/10/05 08:35:19;;;;;;;17.75;5.00;;;;;;;18.22;61.43;102215.25;5059086;28;20056;-63
2023/10/05 08:37:49;;;;;;;14.50;4.28;;;;;;;18.72;61.44;102210.78;5044524;28;20060;-64
2023/10/05 08:43:10;;;;;;;17.70;4.90;;;;;;;19.05;60.60;102203.47;5070233;28;20075;-63
2023/10/05 08:45:51;;;;;;;15.20;4.18;;;;;;;19.29;59.08;102186.09;5074340;28;20056;-64
2023/10/05 08:48:28;;;;;;;10.07;3.55;;;;;;;19.55;58.61;102184.00;5053057;28;20057;-62
2023/10/05 08:51:04;;;;;;;14.43;4.55;;;;;;;19.57;58.40;102188.09;5069883;28;20048;-63
2023/10/05 08:53:33;;;;;;;16.15;7.82;;;;;;;19.54;58.04;102196.34;5057821;28;20048;-63
2023/10/05 08:56:00;;;;;;;16.20;6.32;;;;;;;18.83;60.30;102212.06;5050391;28;20664;-62
2023/10/05 08:58:28;;;;;;;19.60;4.72;;;;;;;19.41;59.40;102214.97;5054358;28;20045;-63
2023/10/05 09:01:03;;;;;;;13.75;4.22;;;;;;;19.51;58.29;102214.59;5054739;28;20051;-62
2023/10/05 09:03:37;;;;;;;14.15;4.30;;;;;;;19.54;58.29;102210.31;5057011;28;20052;-64
2023/10/05 09:06:20;;;;;;;16.52;4.65;;;;;;;19.63;57.83;102191.53;5069814;28;20049;-63
2023/10/05 09:08:51;;;;;;;17.15;5.70;;;;;;;19.77;57.08;102209.66;5076823;28;20060;-63
2023/10/05 09:11:21;;;;;;;12.88;3.85;;;;;;;19.19;57.31;102203.22;5069570;28;20048;-64
2023/10/05 09:13:49;;;;;;;15.33;5.43;;;;;;;19.24;58.63;102189.91;5053746;28;20045;-64
2023/10/05 09:16:30;;;;;;;18.38;6.07;;;;;;;19.45;57.68;102185.22;5054747;28;20063;-63
2023/10/05 09:19:00;;;;;;;18.88;5.22;;;;;;;19.58;57.35;102189.72;5069234;28;20050;-63
2023/10/05 09:21:50;;;;;;;16.20;4.43;;;;;;;19.59;57.28;102182.16;5075351;28;20559;-63
2023/10/05 09:24:22;;;;;;;14.38;4.75;;;;;;;19.72;56.88;102181.91;5070326;28;20057;-63
2023/10/05 09:26:50;;;;;;;18.77;4.95;;;;;;;19.82;56.42;102186.28;5068605;28;20052;-63
2023/10/05 09:29:32;;;;;;;15.57;4.72;;;;;;;19.91;56.28;102207.44;5074726;28;20060;-62
2023/10/05 09:32:00;;;;;;;14.55;6.80;;;;;;;19.32;57.91;102208.63;5074875;28;20515;-63
2023/10/05 09:34:49;;;;;;;14.90;4.80;;;;;;;19.57;57.12;102198.44;5066640;28;20049;-63
2023/10/05 09:37:18;;;;;;;16.13;4.50;;;;;;;19.66;57.00;102197.25;5063061;28;20076;-63
2023/10/05 09:39:54;;;;;;;13.80;3.80;;;;;;;19.80;56.13;102203.41;5072356;28;20055;-62
2023/10/05 09:42:26;;;;;;;15.75;4.07;;;;;;;19.73;56.20;102191.13;5073883;28;20052;-64
2023/10/05 09:44:58;;;;;;;15.15;3.90;;;;;;;19.98;55.73;102199.31;5083494;28;20048;-65
2023/10/05 09:47:27;;;;;;;12.73;3.83;;;;;;;20.30;54.98;102203.34;5077243;28;20683;-63
2023/10/05 09:49:57;;;;;;;11.45;3.10;;;;;;;20.06;54.83;102211.59;5045658;28;20052;-62
2023/10/05 09:52:27;;;;;;;10.07;2.90;;;;;;;19.85;55.22;102211.59;5065247;28;20055;-63
2023/10/05 09:54:54;;;;;;;15.07;3.28;;;;;;;19.30;55.68;102212.88;5071287;28;20044;-61
2023/10/05 09:57:23;;;;;;;14.85;3.47;;;;;;;19.49;54.31;102211.31;5071673;28;20075;-62
2023/10/05 09:59:59;;;;;;;12.45;3.55;;;;;;;19.68;54.18;102206.09;5055361;28;20048;-62
2023/10/05 10:02:32;;;;;;;14.63;4.32;;;;;;;19.70;53.96;102203.00;5061217;28;20041;-62
2023/10/05 10:05:09;;;;;;;12.35;3.72;;;;;;;19.88;54.69;102205.31;5039592;28;20051;-63
2023/10/05 10:07:38;;;;;;;11.52;4.07;;;;;;;20.25;53.37;102197.97;5034732;28;20052;-63
2023/10/05 10:10:06;;;;;;;12.15;4.82;;;;;;;20.35;52.54;102185.53;5055098;28;20056;-64
2023/10/05 10:12:38;;;;;;;12.07;3.95;;;;;;;20.42;52.92;102180.19;5065986;28;20040;-63
2023/10/05 10:15:12;;;;;;;18.30;7.10;;;;;;;20.31;53.15;102165.00;5071388;28;20395;-63
2023/10/05 10:17:53;;;;;;;12.48;4.05;;;;;;;20.37;52.37;102150.44;5073162;28;20052;-62
2023/10/05 10:20:36;;;;;;;12.55;3.70;;;;;;;20.49;52.65;102158.03;5072736;28;20057;-63
2023/10/05 10:23:21;;;;;;;14.50;3.58;;;;;;;20.67;52.36;102154.72;5041374;28;20041;-63
2023/10/05 10:25:52;;;;;;;13.48;5.88;;;;;;;20.63;51.84;102150.16;5064455;28;20544;-63
2023/10/05 10:31:25;;;;;;;10.90;4.43;;;;;;;20.05;53.17;102151.19;5074409;28;20442;-63
2023/10/05 10:33:53;;;;;;;13.75;4.47;;;;;;;20.30;52.24;102146.56;5074265;28;20052;-62
2023/10/05 10:36:46;;;;;;;17.90;4.32;;;;;;;20.47;51.86;102150.00;5067329;28;20063;-63
2023/10/05 10:39:33;;;;;;;12.63;3.30;;;;;;;20.48;51.64;102150.81;5070029;28;20041;-64
2023/10/05 10:42:04;;;;;;;15.07;3.80;;;;;;;20.82;51.28;102167.22;5065781;28;20056;-63
2023/10/05 10:44:56;;;;;;;16.45;4.03;;;;;;;20.66;51.31;102155.88;5049815;28;20057;-64
2023/10/05 10:47:23;;;;;;;11.13;4.13;;;;;;;20.19;53.02;102171.34;5059181;28;20539;-62
2023/10/05 10:50:23;;;;;;;14.00;4.82;;;;;;;20.42;52.38;102169.00;5051800;28;20044;-63
2023/10/05 10:52:50;;;;;;;;;;;;;;;20.40;52.54;102158.13;5046438;28;20045;-63
2023/10/05 10:55:20;;;;;;;15.15;4.40;;;;;;;19.27;53.09;102164.06;5059852;28;19928;-63
2023/10/05 10:57:48;;;;;;;15.23;4.70;;;;;;;18.63;56.93;102174.53;5072726;28;20063;-63
2023/10/05 11:03:10;;;;;;;13.55;4.75;;;;;;;19.36;54.44;102169.63;5073676;28;20049;-63
2023/10/05 11:05:41;;;;;;;12.32;4.70;;;;;;;19.41;55.20;102166.66;5071253;28;20155;-64
2023/10/05 11:08:10;;;;;;;14.30;5.38;;;;;;;20.08;56.55;102165.31;5074410;28;20052;-62
2023/10/05 11:10:40;;;;;;;11.73;4.78;;;;;;;20.43;56.55;102165.88;5073865;28;20132;-63
2023/10/05 11:13:14;;;;;;;14.85;5.28;;;;;;;20.04;51.78;102181.19;5060369;28;20045;-63
2023/10/05 11:16:09;;;;;;;15.90;4.20;;;;;;;20.06;54.07;102175.22;5067533;28;20048;-64
2023/10/05 11:18:57;;;;;;;11.93;4.13;;;;;;;19.47;52.67;102171.72;5069948;28;20064;-64
2023/10/05 11:21:26;;;;;;;14.38;4.03;;;;;;;19.36;53.68;102170.47;5046323;28;20514;-62
2023/10/05 11:23:57;;;;;;;11.82;3.50;;;;;;;19.85;54.62;102160.44;5068709;28;20059;-64
2023/10/05 11:26:33;;;;;;;16.73;4.15;;;;;;;20.40;53.15;102160.16;5072883;28;20057;-63
2023/10/05 11:29:20;;;;;;;14.52;5.03;;;;;;;20.86;51.72;102168.19;5066704;28;20499;-63
2023/10/05 11:31:51;;;;;;;9.95;3.72;;;;;;;21.12;50.06;102158.31;5059527;28;20055;-63
2023/10/05 11:34:44;;;;;;;16.27;7.05;;;;;;;20.91;51.09;102153.94;5049429;28;20618;-63
2023/10/05 11:37:32;;;;;;;15.75;5.10;;;;;;;20.89;50.50;102151.50;5068809;28;20049;-62
2023/10/05 11:40:01;;;;;;;16.65;8.73;;;;;;;20.85;49.96;102136.53;5055085;28;20053;-63
2023/10/05 11:42:34;;;;;;;16.15;4.85;;;;;;;20.95;49.66;102127.69;5071077;28;20075;-62
2023/10/05 11:45:12;;;;;;;9.68;3.67;;;;;;;20.89;49.80;102122.66;5055228;28;20053;-63
2023/10/05 11:47:45;;;;;;;10.10;4.10;;;;;;;20.96;50.19;102125.69;5065539;28;20415;-63
2023/10/05 11:50:24;;;;;;;13.60;4.50;;;;;;;21.15;49.51;102120.34;5071617;28;20063;-61
2023/10/05 11:52:52;;;;;;;12.70;3.90;;;;;;;21.23;49.38;102120.22;5069305;28;20067;-63
2023/10/05 11:55:20;;;;;;;11.48;4.00;;;;;;;20.82;50.06;102114.84;5055041;28;20053;-62
2023/10/05 11:57:48;;;;;;;15.55;3.78;;;;;;;20.91;49.38;102120.31;5035876;28;20056;-62
2023/10/05 12:00:16;;;;;;;11.30;3.75;;;;;;;20.75;49.60;102113.78;5067243;28;20498;-65
2023/10/05 12:02:44;;;;;;;12.07;3.55;;;;;;;20.99;49.29;102109.03;5067900;28;20052;-64
2023/10/05 12:05:12;;;;;;;12.10;3.38;;;;;;;20.94;48.23;102114.84;5066728;28;20466;-66
2023/10/05 12:07:41;;;;;;;9.52;3.65;;;;;;;20.65;50.31;102112.25;5071667;28;20054;-67
2023/10/05 12:10:10;;;;;;;14.30;3.97;;;;;;;21.01;49.02;102101.09;5054401;28;20059;-69